Tropical Cyclones
[Index]
Main Index Home Page Stock Weather Photos Extreme Storms Discussion Storm News and Storm Chasing Reports Tropical Cyclones / Hurricanes / Typhoons Weather Data and Links Wild Fires / Bushfires Weather Observation Techniques Weather Picture Catalogue Tornado Pictures and Reports Stock Video Footage and DVDs for sale
Season 2015-2016 Tropical Cyclone ANNABELLE Track Map
Season 2015-2016 Summaries: [BoM-AU] [JTWC-AU] [JTWC-SIO] [JTWC-SPAC] [JTWC-SH]
<<- Previous TC | JTWC 2015-2016 Season | Next TC ->>

click for intensity scale information  Lat/long Grid: Show Hide

 Date Labels: Show Hide

Joint Typhoon Warning Centre Cyclone Data

Name: ANNABELLE

19 Nov 2015 00:00 UTC to 27 Nov 2015 12:00 UTC

    date/time    lat    long     hPa   cat  kts
2015-11-19 00    6.7    78.0    1004         25          
2015-11-19 06    7.2    77.7    1004         25          
2015-11-19 12    7.8    77.2    1004         25          
2015-11-19 18    8.8    76.0    1004         25          
2015-11-20 00    9.8    74.5    1004         25          
2015-11-20 06    9.8    72.9    1000         30          
2015-11-20 12    9.8    72.2     996         35          
2015-11-20 18    9.8    71.8     996         35          
2015-11-21 00   10.0    71.6     993    1    40          
2015-11-21 06   10.3    71.5     989    1    45          
2015-11-21 12   10.7    71.4     989    1    45          
2015-11-21 18   11.1    71.4     985    1    50          
2015-11-22 00   11.5    71.5     985    1    50          
2015-11-22 06   12.0    71.7     985    1    50          
2015-11-22 12   12.8    72.1     982    2    55          
2015-11-22 12   12.8    72.1     982    2    55          
2015-11-22 18   13.5    72.7     982    2    55          
2015-11-22 18   13.5    72.7     982    2    55          
2015-11-23 00   14.2    73.7     978    2    60          
2015-11-23 00   14.2    73.7     978    2    60          
2015-11-23 06   15.1    75.0     978    2    60          
2015-11-23 06   15.1    75.0     978    2    60          
2015-11-23 12   16.7    76.7     982    2    55          
2015-11-23 12   16.7    76.7     982    2    55          
2015-11-23 18   17.9    77.7     985    1    50          
2015-11-24 00   19.1    78.7     985    1    50          
2015-11-24 06   20.8    80.0     989    1    45          
2015-11-24 12   22.6    81.1     993    1    40          
2015-11-24 18   23.5    81.0     996         35          
2015-11-25 00   24.3    81.4    1000         30          
2015-11-25 06   24.7    81.5    1000         30          
2015-11-25 12   24.8    81.5    1004         25          
2015-11-25 18   24.9    81.4    1004         25          
2015-11-26 00   25.1    81.1    1004         25          
2015-11-26 06   25.0    80.6    1004         25          
2015-11-26 12   24.6    79.9    1004         25          
2015-11-26 18   24.0    79.3    1007         20          
2015-11-27 00   23.6    78.6    1010         15          
2015-11-27 06   23.5    77.8    1010         15          
2015-11-27 12   23.5    77.1    1010         15          
Winds are 1-min average.

Tropical cyclone tracks developed by Michael Bath using data from the Joint Typhoon Warning Centre Best Tracks and Google Maps.


[Australian Severe Weather index] [Copyright Notice] [Email Contacts] [Search This Site] [Privacy Policy]
Document: tropical_cyclone_annabelle.htm Updated: 28 June 2017